Time;durP1;ratioP1;P1;durP2;ratioP2;P2;SDS_P1;SDS_P2;PMS_P1;PMS_P2;Temp;Humidity;BMP_temperature;BMP_pressure;BME280_temperature;BME280_humidity;BME280_pressure;Samples;Min_cycle;Max_cycle;Signal;HPM_P1;HPM_P2
2021/10/11 00:00:29;;;;;;;9.03;5.47;;;;;;;;;;5121310;28;20545;-66
2021/10/11 00:02:58;;;;;;;8.17;5.03;;;;;;;;;;5121241;28;20616;-66
2021/10/11 00:05:26;;;;;;;8.67;5.03;;;;;;;;;;5120992;28;20252;-66
2021/10/11 00:07:54;;;;;;;9.83;4.90;;;;;;;;;;5121424;28;20201;-66
2021/10/11 00:10:24;;;;;;;11.87;6.20;;;;;;;;;;5121264;28;20231;-66
2021/10/11 00:12:52;;;;;;;5.27;4.63;;;;;;;;;;5121065;28;20690;-66
2021/10/11 00:15:21;;;;;;;9.07;5.40;;;;;;;;;;5121334;28;20220;-66
2021/10/11 00:17:49;;;;;;;6.87;5.40;;;;;;;;;;5121306;27;20205;-66
2021/10/11 00:20:18;;;;;;;6.33;4.50;;;;;;;;;;5121177;28;20205;-66
2021/10/11 00:22:46;;;;;;;8.00;5.43;;;;;;;;;;5121358;28;20268;-66
2021/10/11 00:25:14;;;;;;;8.23;4.63;;;;;;;;;;5121012;28;20228;-66
2021/10/11 00:27:43;;;;;;;6.70;5.40;;;;;;;;;;5120934;28;20216;-66
2021/10/11 00:30:12;;;;;;;8.13;4.63;;;;;;;;;;5120694;28;20205;-66
2021/10/11 00:32:41;;;;;;;8.00;5.47;;;;;;;;;;5120550;28;20227;-65
2021/10/11 00:35:10;;;;;;;8.50;5.23;;;;;;;;;;5120472;28;20225;-65
2021/10/11 00:37:39;;;;;;;6.10;5.50;;;;;;;;;;5120681;27;20575;-65
2021/10/11 00:40:08;;;;;;;9.60;5.00;;;;;;;;;;5120360;28;20236;-65
2021/10/11 00:42:36;;;;;;;8.80;5.03;;;;;;;;;;5119750;28;20208;-66
2021/10/11 00:45:04;;;;;;;7.27;5.40;;;;;;;;;;5120590;28;20225;-65
2021/10/11 00:47:32;;;;;;;9.30;5.67;;;;;;;;;;5116168;28;20801;-65
2021/10/11 00:50:00;;;;;;;5.73;4.90;;;;;;;;;;5114821;27;20197;-65
2021/10/11 00:52:28;;;;;;;8.30;4.90;;;;;;;;;;5112572;28;20221;-66
2021/10/11 00:54:58;;;;;;;7.13;4.83;;;;;;;;;;5113594;28;20224;-65
2021/10/11 00:57:26;;;;;;;7.20;5.40;;;;;;;;;;5114772;28;20679;-65
2021/10/11 00:59:54;;;;;;;5.80;5.10;;;;;;;;;;5115075;28;20200;-66
2021/10/11 01:02:22;;;;;;;6.83;4.93;;;;;;;;;;5116153;28;20203;-65
2021/10/11 01:04:50;;;;;;;7.83;5.33;;;;;;;;;;5112009;28;20696;-65
2021/10/11 01:07:18;;;;;;;7.30;5.73;;;;;;;;;;5113464;28;20196;-65
2021/10/11 01:09:46;;;;;;;7.83;5.33;;;;;;;;;;5112633;28;20276;-65
2021/10/11 01:12:16;;;;;;;5.10;4.57;;;;;;;;;;5115187;28;20653;-65
2021/10/11 01:14:44;;;;;;;7.30;5.33;;;;;;;;;;5113535;28;20217;-65
2021/10/11 01:17:14;;;;;;;11.60;5.40;;;;;;;;;;5112389;28;20664;-65
2021/10/11 01:19:42;;;;;;;6.23;5.37;;;;;;;;;;5110238;28;20271;-65
2021/10/11 01:22:11;;;;;;;6.03;5.40;;;;;;;;;;5115382;28;20197;-65
2021/10/11 01:24:39;;;;;;;8.27;5.57;;;;;;;;;;5116567;28;20223;-65
2021/10/11 01:27:07;;;;;;;8.87;5.87;;;;;;;;;;5111223;28;20198;-65
2021/10/11 01:29:35;;;;;;;10.13;5.47;;;;;;;;;;5111039;28;20198;-66
2021/10/11 01:32:03;;;;;;;7.10;5.27;;;;;;;;;;5118580;28;20221;-66
2021/10/11 01:34:31;;;;;;;9.93;5.77;;;;;;;;;;5116388;28;20303;-66
2021/10/11 01:36:59;;;;;;;8.47;5.87;;;;;;;;;;5118765;28;20193;-66
2021/10/11 01:39:29;;;;;;;9.23;5.70;;;;;;;;;;5111297;28;20234;-67
2021/10/11 01:41:58;;;;;;;8.30;5.80;;;;;;;;;;5111304;28;20201;-65
2021/10/11 01:44:26;;;;;;;9.00;5.63;;;;;;;;;;5109087;28;20227;-65
2021/10/11 01:46:54;;;;;;;7.23;5.03;;;;;;;;;;5119067;28;20207;-65
2021/10/11 01:49:22;;;;;;;7.37;5.30;;;;;;;;;;5119136;28;20211;-66
2021/10/11 01:51:50;;;;;;;8.43;5.80;;;;;;;;;;5115297;27;20575;-65
2021/10/11 01:54:18;;;;;;;8.60;5.83;;;;;;;;;;5115314;28;20230;-65
2021/10/11 01:56:47;;;;;;;6.87;5.53;;;;;;;;;;5117935;28;20287;-65
2021/10/11 01:59:16;;;;;;;8.83;5.83;;;;;;;;;;5117873;28;20207;-65
2021/10/11 02:01:44;;;;;;;6.43;5.43;;;;;;;;;;5117405;28;20189;-65
2021/10/11 02:04:12;;;;;;;10.90;6.07;;;;;;;;;;5118709;28;20221;-65
2021/10/11 02:06:40;;;;;;;8.70;5.90;;;;;;;;;;5116962;28;20201;-65
2021/10/11 02:09:08;;;;;;;9.77;6.73;;;;;;;;;;5117792;28;20215;-65
2021/10/11 02:11:35;;;;;;;8.37;6.30;;;;;;;;;;5117555;28;20216;-65
2021/10/11 02:14:05;;;;;;;6.00;4.90;;;;;;;;;;5127232;27;20731;-65
2021/10/11 02:16:33;;;;;;;9.53;6.40;;;;;;;;;;5118536;28;20211;-65
2021/10/11 02:19:01;;;;;;;6.57;5.53;;;;;;;;;;5118654;28;20215;-65
2021/10/11 02:21:29;;;;;;;12.77;6.20;;;;;;;;;;5118435;28;20203;-65
2021/10/11 02:23:57;;;;;;;9.47;5.50;;;;;;;;;;5118769;28;20234;-66
2021/10/11 02:26:25;;;;;;;9.20;6.20;;;;;;;;;;5118820;28;20211;-66
2021/10/11 02:28:53;;;;;;;7.13;5.57;;;;;;;;;;5118434;28;20648;-65
2021/10/11 02:31:22;;;;;;;8.27;5.73;;;;;;;;;;5118306;28;20227;-66
2021/10/11 02:33:50;;;;;;;8.50;6.10;;;;;;;;;;5118516;28;20220;-65
2021/10/11 02:36:18;;;;;;;7.77;6.07;;;;;;;;;;5118119;28;20589;-65
2021/10/11 02:38:46;;;;;;;8.77;5.40;;;;;;;;;;5118478;28;20239;-65
2021/10/11 02:41:14;;;;;;;9.13;5.87;;;;;;;;;;5118492;28;20204;-66
2021/10/11 02:43:42;;;;;;;8.03;6.17;;;;;;;;;;5118431;28;20209;-65
2021/10/11 02:46:10;;;;;;;8.87;5.93;;;;;;;;;;5118273;28;20209;-65
2021/10/11 02:48:39;;;;;;;6.30;5.20;;;;;;;;;;5118477;28;20204;-65
2021/10/11 02:51:07;;;;;;;7.60;5.50;;;;;;;;;;5118198;28;20205;-65
2021/10/11 02:53:35;;;;;;;8.33;6.03;;;;;;;;;;5117920;28;20228;-65
2021/10/11 02:56:03;;;;;;;7.60;5.53;;;;;;;;;;5118279;28;20660;-66
2021/10/11 02:58:31;;;;;;;8.63;5.47;;;;;;;;;;5118497;28;20209;-65
2021/10/11 03:00:59;;;;;;;8.00;6.30;;;;;;;;;;5118218;28;20279;-66
2021/10/11 03:03:27;;;;;;;6.97;5.70;;;;;;;;;;5117976;28;20208;-66
2021/10/11 03:05:57;;;;;;;10.07;6.23;;;;;;;;;;5118077;28;20321;-65
2021/10/11 03:08:25;;;;;;;8.67;6.20;;;;;;;;;;5118269;28;20205;-65
2021/10/11 03:10:53;;;;;;;8.77;5.63;;;;;;;;;;5118249;28;20215;-65
2021/10/11 03:13:20;;;;;;;8.50;5.77;;;;;;;;;;5118197;28;20240;-65
2021/10/11 03:15:48;;;;;;;7.83;6.07;;;;;;;;;;5118176;28;20228;-65
2021/10/11 03:18:16;;;;;;;9.63;5.47;;;;;;;;;;5118157;28;20201;-65
2021/10/11 03:20:44;;;;;;;8.07;6.17;;;;;;;;;;5117727;28;20211;-65
2021/10/11 03:23:14;;;;;;;7.47;6.13;;;;;;;;;;5118131;28;20211;-65
2021/10/11 03:25:42;;;;;;;11.60;6.27;;;;;;;;;;5118074;28;20225;-65
2021/10/11 03:28:10;;;;;;;7.37;5.57;;;;;;;;;;5118168;28;20261;-65
2021/10/11 03:30:38;;;;;;;8.77;5.97;;;;;;;;;;5118151;28;20261;-65
2021/10/11 03:33:06;;;;;;;9.40;5.47;;;;;;;;;;5118004;28;20228;-65
2021/10/11 03:35:34;;;;;;;10.63;6.37;;;;;;;;;;5117680;28;20315;-65
2021/10/11 03:38:02;;;;;;;7.10;5.97;;;;;;;;;;5117372;28;20204;-65
2021/10/11 03:40:32;;;;;;;9.23;5.90;;;;;;;;;;5117791;28;20264;-65
2021/10/11 03:43:00;;;;;;;8.90;5.83;;;;;;;;;;5117987;28;20201;-66
2021/10/11 03:45:28;;;;;;;9.37;6.23;;;;;;;;;;5118036;28;20237;-67
2021/10/11 03:47:56;;;;;;;8.00;6.27;;;;;;;;;;5114797;28;20201;-65
2021/10/11 03:50:24;;;;;;;8.87;5.77;;;;;;;;;;5116945;28;20215;-65
2021/10/11 03:52:52;;;;;;;8.20;6.07;;;;;;;;;;5114752;28;20300;-65
2021/10/11 03:55:20;;;;;;;8.63;6.37;;;;;;;;;;5116441;28;20217;-65
2021/10/11 03:57:50;;;;;;;10.47;5.93;;;;;;;;;;5116443;28;20276;-65
2021/10/11 04:00:18;;;;;;;6.73;5.43;;;;;;;;;;5111442;28;20201;-65
2021/10/11 04:02:46;;;;;;;10.53;6.80;;;;;;;;;;5114743;28;20276;-65
2021/10/11 04:05:14;;;;;;;9.97;6.73;;;;;;;;;;5115883;28;20578;-65
2021/10/11 04:07:44;;;;;;;10.23;6.63;;;;;;;;;;5116147;28;20200;-65
2021/10/11 04:10:12;;;;;;;12.47;6.80;;;;;;;;;;5114053;28;20617;-65
2021/10/11 04:12:44;;;;;;;8.37;6.23;;;;;;;;;;5116449;28;20246;-65
2021/10/11 04:15:13;;;;;;;8.77;6.23;;;;;;;;;;5113699;28;20246;-65
2021/10/11 04:17:41;;;;;;;8.07;6.00;;;;;;;;;;5119057;28;20615;-65
2021/10/11 04:20:10;;;;;;;9.07;5.90;;;;;;;;;;5116718;28;20197;-65
2021/10/11 04:22:38;;;;;;;10.03;5.47;;;;;;;;;;5119922;28;20192;-65
2021/10/11 04:25:06;;;;;;;10.03;6.60;;;;;;;;;;5119730;28;20209;-65
2021/10/11 04:27:34;;;;;;;11.90;7.37;;;;;;;;;;5119682;28;20201;-64
2021/10/11 04:30:02;;;;;;;13.73;6.70;;;;;;;;;;5119388;28;20570;-65
2021/10/11 04:32:32;;;;;;;9.27;6.83;;;;;;;;;;5119380;28;20197;-65
2021/10/11 04:35:00;;;;;;;10.70;6.67;;;;;;;;;;5119103;28;20224;-65
2021/10/11 04:37:28;;;;;;;9.73;6.17;;;;;;;;;;5118822;28;20210;-65
2021/10/11 04:39:56;;;;;;;9.10;6.33;;;;;;;;;;5117745;28;20220;-65
2021/10/11 04:42:24;;;;;;;12.57;6.70;;;;;;;;;;5119735;28;20194;-65
2021/10/11 04:44:52;;;;;;;8.50;6.73;;;;;;;;;;5119139;27;20229;-65
2021/10/11 04:47:20;;;;;;;9.00;6.07;;;;;;;;;;5118910;28;20219;-64
2021/10/11 04:49:49;;;;;;;9.60;7.07;;;;;;;;;;5118276;28;20207;-65
2021/10/11 04:52:17;;;;;;;10.87;6.63;;;;;;;;;;5118899;28;20305;-65
2021/10/11 04:54:45;;;;;;;8.80;6.63;;;;;;;;;;5118738;28;20680;-65
2021/10/11 04:57:13;;;;;;;7.70;6.43;;;;;;;;;;5119062;28;20197;-65
2021/10/11 04:59:41;;;;;;;17.53;6.73;;;;;;;;;;5119016;28;20207;-65
2021/10/11 05:02:09;;;;;;;9.90;7.50;;;;;;;;;;5116307;28;20193;-65
2021/10/11 05:04:37;;;;;;;11.27;7.00;;;;;;;;;;5118791;28;20212;-65
2021/10/11 05:07:06;;;;;;;11.80;6.77;;;;;;;;;;5119227;28;20284;-66
2021/10/11 05:09:34;;;;;;;10.53;7.53;;;;;;;;;;5117070;28;20207;-65
2021/10/11 05:12:02;;;;;;;11.13;6.70;;;;;;;;;;5119772;28;20284;-63
2021/10/11 05:14:30;;;;;;;10.73;7.77;;;;;;;;;;5111944;28;20225;-63
2021/10/11 05:16:58;;;;;;;12.70;6.93;;;;;;;;;;5119877;28;20657;-63
2021/10/11 05:19:27;;;;;;;15.37;7.27;;;;;;;;;;5120071;28;20205;-63
2021/10/11 05:21:56;;;;;;;10.93;6.97;;;;;;;;;;5119790;28;20230;-63
2021/10/11 05:24:25;;;;;;;9.93;6.33;;;;;;;;;;5119817;28;20212;-62
2021/10/11 05:26:53;;;;;;;11.77;7.63;;;;;;;;;;5119402;28;20284;-62
2021/10/11 05:29:21;;;;;;;11.70;7.87;;;;;;;;;;5119666;28;20205;-62
2021/10/11 05:31:51;;;;;;;9.63;7.60;;;;;;;;;;5119632;28;20205;-62
2021/10/11 05:34:18;;;;;;;9.00;6.63;;;;;;;;;;5118793;28;20223;-62
2021/10/11 05:36:46;;;;;;;10.20;7.27;;;;;;;;;;5120651;27;20218;-63
2021/10/11 05:39:15;;;;;;;9.30;7.43;;;;;;;;;;5128080;27;20317;-63
2021/10/11 05:41:44;;;;;;;12.27;7.67;;;;;;;;;;5127943;27;20200;-63
2021/10/11 05:44:12;;;;;;;14.33;7.63;;;;;;;;;;5121924;27;20684;-64
2021/10/11 05:46:40;;;;;;;11.47;8.13;;;;;;;;;;5119414;28;20205;-64
2021/10/11 05:49:11;;;;;;;14.67;7.63;;;;;;;;;;5118920;28;20580;-64
2021/10/11 05:51:39;;;;;;;13.10;7.50;;;;;;;;;;5118941;27;20205;-63
2021/10/11 05:54:07;;;;;;;10.50;7.40;;;;;;;;;;5119083;28;20239;-64
2021/10/11 05:56:35;;;;;;;15.13;8.83;;;;;;;;;;5118708;28;20227;-65
2021/10/11 05:59:05;;;;;;;12.63;8.10;;;;;;;;;;5116904;28;20197;-64
2021/10/11 06:01:33;;;;;;;11.93;7.63;;;;;;;;;;5118768;28;20201;-64
2021/10/11 06:04:01;;;;;;;12.03;8.17;;;;;;;;;;5118858;27;20245;-64
2021/10/11 06:06:29;;;;;;;11.57;7.43;;;;;;;;;;5118334;28;20659;-63
2021/10/11 06:08:56;;;;;;;12.07;7.70;;;;;;;;;;5118848;28;20201;-62
2021/10/11 06:11:25;;;;;;;10.20;8.63;;;;;;;;;;5118932;28;20222;-63
2021/10/11 06:13:53;;;;;;;14.90;10.67;;;;;;;;;;5118422;28;20691;-64
2021/10/11 06:16:22;;;;;;;11.77;8.00;;;;;;;;;;5118568;28;20207;-64
2021/10/11 06:18:50;;;;;;;14.50;8.93;;;;;;;;;;5118120;28;20239;-63
2021/10/11 06:21:18;;;;;;;14.27;8.30;;;;;;;;;;5117708;28;20234;-63
2021/10/11 06:23:47;;;;;;;14.10;8.80;;;;;;;;;;5117868;28;20281;-63
2021/10/11 06:26:15;;;;;;;14.33;8.20;;;;;;;;;;5117913;28;20284;-64
2021/10/11 06:28:43;;;;;;;12.43;8.23;;;;;;;;;;5118476;28;20209;-64
2021/10/11 06:31:11;;;;;;;12.63;8.43;;;;;;;;;;5118343;28;20205;-64
2021/10/11 06:33:40;;;;;;;13.33;8.40;;;;;;;;;;5118148;28;20223;-64
2021/10/11 06:36:08;;;;;;;13.90;8.13;;;;;;;;;;5117810;28;20208;-64
2021/10/11 06:38:36;;;;;;;11.57;7.97;;;;;;;;;;5118054;27;20320;-63
2021/10/11 06:41:07;;;;;;;12.23;8.27;;;;;;;;;;5118018;28;20205;-63
2021/10/11 06:43:35;;;;;;;18.90;9.03;;;;;;;;;;5118039;28;20207;-64
2021/10/11 06:46:03;;;;;;;13.53;8.77;;;;;;;;;;5117748;28;20212;-64
2021/10/11 06:48:31;;;;;;;12.83;8.80;;;;;;;;;;5118084;28;20215;-64
2021/10/11 06:51:01;;;;;;;13.17;8.30;;;;;;;;;;5117775;28;20209;-63
2021/10/11 06:53:29;;;;;;;13.53;8.63;;;;;;;;;;5117979;28;20288;-63
2021/10/11 06:55:57;;;;;;;13.33;9.03;;;;;;;;;;5117991;28;20254;-62
2021/10/11 06:58:24;;;;;;;10.97;8.07;;;;;;;;;;5118154;28;20218;-62
2021/10/11 07:00:52;;;;;;;13.37;8.70;;;;;;;;;;5117637;28;20672;-62
2021/10/11 07:03:24;;;;;;;13.10;8.73;;;;;;;;;;5116241;28;20207;-63
2021/10/11 07:05:52;;;;;;;12.90;9.00;;;;;;;;;;5103693;28;20281;-63
2021/10/11 07:08:21;;;;;;;16.53;9.87;;;;;;;;;;5117932;28;20201;-63
2021/10/11 07:10:53;;;;;;;13.57;9.53;;;;;;;;;;5117896;28;20283;-63
2021/10/11 07:13:21;;;;;;;13.57;8.40;;;;;;;;;;5107660;28;20201;-63
2021/10/11 07:15:49;;;;;;;13.43;8.77;;;;;;;;;;5106735;28;20313;-63
2021/10/11 07:18:17;;;;;;;15.47;10.00;;;;;;;;;;5117645;28;20718;-63
2021/10/11 07:20:45;;;;;;;15.50;9.50;;;;;;;;;;5117648;28;20300;-63
2021/10/11 07:23:14;;;;;;;11.90;8.57;;;;;;;;;;5118015;28;20204;-63
2021/10/11 07:25:43;;;;;;;18.37;9.63;;;;;;;;;;5117579;28;20220;-62
2021/10/11 07:28:11;;;;;;;12.87;9.47;;;;;;;;;;5117614;28;20209;-63
2021/10/11 07:30:39;;;;;;;17.23;9.40;;;;;;;;;;5117506;28;20203;-63
2021/10/11 07:33:07;;;;;;;19.33;9.43;;;;;;;;;;5117095;28;20204;-63
2021/10/11 07:35:35;;;;;;;14.03;9.77;;;;;;;;;;5117289;28;20239;-63
2021/10/11 07:38:04;;;;;;;14.60;9.80;;;;;;;;;;5116717;28;20296;-63
2021/10/11 07:40:50;;;;;;;14.40;10.40;;;;;;;;;;5117424;28;20688;-63
2021/10/11 07:43:18;;;;;;;17.43;10.83;;;;;;;;;;5116822;28;20839;-64
2021/10/11 07:45:46;;;;;;;17.07;10.50;;;;;;;;;;5117058;28;20255;-63
2021/10/11 07:48:14;;;;;;;15.17;10.30;;;;;;;;;;5115079;28;20201;-63
2021/10/11 07:50:42;;;;;;;15.40;11.23;;;;;;;;;;5119169;28;20209;-63
2021/10/11 07:53:11;;;;;;;17.20;10.57;;;;;;;;;;5121189;28;20672;-63
2021/10/11 07:55:39;;;;;;;19.97;11.00;;;;;;;;;;5121170;28;20224;-63
2021/10/11 07:58:08;;;;;;;15.30;11.27;;;;;;;;;;5121247;28;20205;-63
2021/10/11 08:00:37;;;;;;;18.47;10.77;;;;;;;;;;5121092;28;20204;-63
2021/10/11 08:03:05;;;;;;;14.67;9.73;;;;;;;;;;5120805;28;20217;-63
2021/10/11 08:05:34;;;;;;;16.37;10.97;;;;;;;;;;5120787;28;20221;-63
2021/10/11 08:08:02;;;;;;;19.53;11.50;;;;;;;;;;5123814;27;20204;-65
2021/10/11 08:10:30;;;;;;;17.53;10.63;;;;;;;;;;5130915;27;20208;-63
2021/10/11 08:12:58;;;;;;;17.07;10.40;;;;;;;;;;5129154;27;20204;-64
2021/10/11 08:15:28;;;;;;;27.13;11.00;;;;;;;;;;5120980;27;20217;-63
2021/10/11 08:17:55;;;;;;;15.33;11.10;;;;;;;;;;5120291;27;20197;-64
2021/10/11 08:20:24;;;;;;;17.40;10.10;;;;;;;;;;5130740;27;20196;-64
2021/10/11 08:22:52;;;;;;;20.87;10.10;;;;;;;;;;5128346;27;20200;-64
2021/10/11 08:25:20;;;;;;;19.27;10.77;;;;;;;;;;5126946;27;20213;-64
2021/10/11 08:27:48;;;;;;;17.20;10.30;;;;;;;;;;5129617;27;20200;-63
2021/10/11 08:30:16;;;;;;;15.67;9.70;;;;;;;;;;5130097;27;20196;-64
2021/10/11 08:32:46;;;;;;;14.27;9.23;;;;;;;;;;5126059;27;20540;-63
2021/10/11 08:35:14;;;;;;;16.60;9.37;;;;;;;;;;5119919;28;20315;-63
2021/10/11 08:37:42;;;;;;;16.53;9.33;;;;;;;;;;5120618;28;20210;-63
2021/10/11 08:40:10;;;;;;;14.07;9.17;;;;;;;;;;5120079;27;20248;-63
2021/10/11 08:42:38;;;;;;;13.60;8.97;;;;;;;;;;5120514;27;20215;-64
2021/10/11 08:45:07;;;;;;;14.83;8.53;;;;;;;;;;5120135;28;20220;-63
2021/10/11 08:47:35;;;;;;;14.83;8.87;;;;;;;;;;5120028;28;20205;-63
2021/10/11 08:50:05;;;;;;;11.40;8.93;;;;;;;;;;5119992;28;20201;-64
2021/10/11 08:52:33;;;;;;;14.23;9.00;;;;;;;;;;5119686;28;20205;-63
2021/10/11 08:55:02;;;;;;;15.87;9.43;;;;;;;;;;5120101;28;20247;-64
2021/10/11 08:57:32;;;;;;;13.97;8.33;;;;;;;;;;5120342;28;20276;-63
2021/10/11 09:00:07;;;;;;;12.20;8.73;;;;;;;;;;5126779;27;20218;-64
2021/10/11 09:02:35;;;;;;;15.50;10.03;;;;;;;;;;5127969;27;20261;-64
2021/10/11 09:05:06;;;;;;;14.10;10.03;;;;;;;;;;5128677;27;20216;-64
2021/10/11 09:07:34;;;;;;;13.30;8.87;;;;;;;;;;5127879;27;20209;-63
2021/10/11 09:10:07;;;;;;;16.03;8.80;;;;;;;;;;5130024;27;20196;-64
2021/10/11 09:12:35;;;;;;;15.43;8.67;;;;;;;;;;5127878;27;20193;-64
2021/10/11 09:15:07;;;;;;;12.70;8.50;;;;;;;;;;5128272;27;20220;-64
2021/10/11 09:17:37;;;;;;;12.83;8.67;;;;;;;;;;5127856;27;20219;-63
2021/10/11 09:20:11;;;;;;;11.80;8.83;;;;;;;;;;5129367;27;20751;-63
2021/10/11 09:22:40;;;;;;;13.13;8.30;;;;;;;;;;5125534;27;20224;-63
2021/10/11 09:25:08;;;;;;;22.37;9.43;;;;;;;;;;5128325;27;20221;-63
2021/10/11 09:27:47;;;;;;;12.70;9.00;;;;;;;;;;5126179;27;20207;-64
2021/10/11 09:30:15;;;;;;;12.37;7.80;;;;;;;;;;5122458;27;20200;-64
2021/10/11 09:32:43;;;;;;;14.13;9.03;;;;;;;;;;5116553;28;20771;-64
2021/10/11 09:35:13;;;;;;;15.60;8.07;;;;;;;;;;5118561;28;20220;-64
2021/10/11 09:37:46;;;;;;;12.67;8.40;;;;;;;;;;5118967;28;20207;-64
2021/10/11 09:40:15;;;;;;;10.80;8.40;;;;;;;;;;5118367;28;20232;-64
2021/10/11 09:42:43;;;;;;;15.47;7.93;;;;;;;;;;5116088;28;20533;-64
2021/10/11 09:45:11;;;;;;;13.43;8.17;;;;;;;;;;5118643;28;20267;-64
2021/10/11 09:47:41;;;;;;;12.27;7.93;;;;;;;;;;5118269;28;20204;-64
2021/10/11 09:50:10;;;;;;;14.03;9.23;;;;;;;;;;5118130;28;20212;-64
2021/10/11 09:52:41;;;;;;;11.67;8.17;;;;;;;;;;5124850;27;20207;-64
2021/10/11 09:55:09;;;;;;;11.10;8.10;;;;;;;;;;5129900;27;20227;-64
2021/10/11 09:57:38;;;;;;;11.93;7.73;;;;;;;;;;5124990;27;20197;-64
2021/10/11 10:00:08;;;;;;;12.70;8.30;;;;;;;;;;5128732;27;20200;-64
2021/10/11 10:02:37;;;;;;;15.27;7.93;;;;;;;;;;5128756;27;20283;-64
2021/10/11 10:05:06;;;;;;;13.50;8.50;;;;;;;;;;5122101;27;20224;-65
2021/10/11 10:07:35;;;;;;;10.83;8.10;;;;;;;;;;5118512;28;20310;-63
2021/10/11 10:10:05;;;;;;;16.80;8.50;;;;;;;;;;5118586;28;20205;-64
2021/10/11 10:12:33;;;;;;;10.67;7.90;;;;;;;;;;5118857;28;20269;-64
2021/10/11 10:15:02;;;;;;;13.40;7.63;;;;;;;;;;5118506;28;20238;-64
2021/10/11 10:17:31;;;;;;;9.77;7.80;;;;;;;;;;5118471;28;20235;-64
2021/10/11 10:20:08;;;;;;;13.63;8.10;;;;;;;;;;5118381;28;20213;-64
2021/10/11 10:22:49;;;;;;;12.10;7.30;;;;;;;;;;5118751;28;20247;-63
2021/10/11 10:25:19;;;;;;;9.53;7.60;;;;;;;;;;5118238;28;20227;-64
2021/10/11 10:27:48;;;;;;;12.57;8.23;;;;;;;;;;5118570;28;20213;-64
2021/10/11 10:30:17;;;;;;;10.40;7.77;;;;;;;;;;5118792;28;20213;-64
2021/10/11 10:32:58;;;;;;;8.87;7.10;;;;;;;;;;5118276;28;20211;-68
2021/10/11 10:35:27;;;;;;;10.03;7.20;;;;;;;;;;5117584;28;20220;-68
2021/10/11 10:37:55;;;;;;;7.97;7.17;;;;;;;;;;5118027;28;20695;-68
2021/10/11 10:40:27;;;;;;;12.43;6.83;;;;;;;;;;5118379;27;20709;-64
2021/10/11 10:43:09;;;;;;;12.63;8.10;;;;;;;;;;5118288;28;20214;-64
2021/10/11 10:45:40;;;;;;;10.43;7.83;;;;;;;;;;5117811;28;20267;-63
2021/10/11 10:48:17;;;;;;;13.83;7.47;;;;;;;;;;5118772;28;20229;-64
2021/10/11 10:50:45;;;;;;;9.33;7.03;;;;;;;;;;5119737;27;20208;-66
2021/10/11 10:53:13;;;;;;;11.40;7.30;;;;;;;;;;5117484;28;20648;-64
2021/10/11 10:55:43;;;;;;;12.63;6.43;;;;;;;;;;5117560;28;20229;-63
2021/10/11 10:58:13;;;;;;;8.43;6.23;;;;;;;;;;5117985;28;20249;-64
2021/10/11 11:00:41;;;;;;;10.60;6.13;;;;;;;;;;5118411;28;20546;-64
2021/10/11 11:03:11;;;;;;;8.73;6.37;;;;;;;;;;5117993;28;20258;-64
2021/10/11 11:05:42;;;;;;;8.07;6.10;;;;;;;;;;5117368;28;20256;-65
2021/10/11 11:08:29;;;;;;;7.83;5.80;;;;;;;;;;5117859;28;20201;-64
2021/10/11 11:11:03;;;;;;;7.80;6.27;;;;;;;;;;5117583;28;20211;-64
2021/10/11 11:13:31;;;;;;;11.37;6.30;;;;;;;;;;5117684;28;20232;-65
2021/10/11 11:15:59;;;;;;;11.20;7.13;;;;;;;;;;5117449;28;20212;-66
2021/10/11 11:18:27;;;;;;;11.57;5.97;;;;;;;;;;5117530;28;20292;-65
2021/10/11 11:20:56;;;;;;;8.27;5.60;;;;;;;;;;5117637;28;20208;-65
2021/10/11 11:23:25;;;;;;;7.63;5.43;;;;;;;;;;5117692;28;20232;-65
2021/10/11 11:25:54;;;;;;;9.23;5.50;;;;;;;;;;5119942;28;20663;-66
2021/10/11 11:28:25;;;;;;;8.17;5.37;;;;;;;;;;5121931;27;20205;-66
2021/10/11 11:30:54;;;;;;;9.07;5.50;;;;;;;;;;5121940;28;20211;-65
2021/10/11 11:33:23;;;;;;;8.50;5.70;;;;;;;;;;5121862;28;20204;-65
2021/10/11 11:35:52;;;;;;;7.90;5.33;;;;;;;;;;5121706;28;20220;-65
2021/10/11 11:38:24;;;;;;;9.27;5.87;;;;;;;;;;5121556;28;20236;-65
2021/10/11 11:40:53;;;;;;;8.67;6.03;;;;;;;;;;5121735;28;20209;-65
2021/10/11 11:43:22;;;;;;;9.60;5.37;;;;;;;;;;5121813;28;20215;-65
2021/10/11 11:45:53;;;;;;;5.93;5.00;;;;;;;;;;5121461;28;20233;-65
2021/10/11 11:48:22;;;;;;;7.23;5.33;;;;;;;;;;5121682;27;20211;-65
2021/10/11 11:50:52;;;;;;;8.00;5.57;;;;;;;;;;5121194;28;20204;-65
2021/10/11 11:53:21;;;;;;;8.07;6.10;;;;;;;;;;5121409;27;20205;-65
2021/10/11 11:55:51;;;;;;;8.60;5.47;;;;;;;;;;5121080;28;20228;-64
2021/10/11 11:58:23;;;;;;;9.13;5.60;;;;;;;;;;5121100;28;20224;-64
2021/10/11 12:00:53;;;;;;;8.73;5.33;;;;;;;;;;5121002;28;20637;-66
2021/10/11 12:03:22;;;;;;;6.13;4.50;;;;;;;;;;5121285;28;20208;-64
2021/10/11 12:05:51;;;;;;;7.87;5.43;;;;;;;;;;5120734;28;20286;-64
2021/10/11 12:08:19;;;;;;;6.30;5.40;;;;;;;;;;5121141;28;20207;-64
2021/10/11 12:10:56;;;;;;;7.73;4.30;;;;;;;;;;5121306;28;20358;-64
2021/10/11 12:13:28;;;;;;;6.73;4.60;;;;;;;;;;5121189;28;20279;-65
2021/10/11 12:16:01;;;;;;;5.77;4.27;;;;;;;;;;5121139;28;20212;-65
2021/10/11 12:18:36;;;;;;;6.83;4.80;;;;;;;;;;5121070;28;20220;-65
2021/10/11 12:21:04;;;;;;;4.67;4.20;;;;;;;;;;5120337;28;20672;-65
2021/10/11 12:23:39;;;;;;;7.47;4.70;;;;;;;;;;5120866;27;20212;-65
2021/10/11 12:26:07;;;;;;;7.53;5.03;;;;;;;;;;5120700;28;20355;-65
2021/10/11 12:28:35;;;;;;;6.50;4.30;;;;;;;;;;5120620;27;20200;-65
2021/10/11 12:31:06;;;;;;;9.37;5.00;;;;;;;;;;5120424;28;20572;-65
2021/10/11 12:33:37;;;;;;;6.90;4.73;;;;;;;;;;5120662;28;20208;-65
2021/10/11 12:36:05;;;;;;;7.33;4.90;;;;;;;;;;5120130;28;20208;-65
2021/10/11 12:38:37;;;;;;;9.00;4.90;;;;;;;;;;5119401;28;20243;-66
2021/10/11 12:41:10;;;;;;;7.83;5.10;;;;;;;;;;5120591;28;20205;-65
2021/10/11 12:43:38;;;;;;;7.17;4.47;;;;;;;;;;5120395;27;20287;-65
2021/10/11 12:46:09;;;;;;;5.47;4.53;;;;;;;;;;5120351;28;20201;-65
2021/10/11 12:48:49;;;;;;;7.60;5.03;;;;;;;;;;5120509;28;20280;-65
2021/10/11 12:51:23;;;;;;;7.60;4.93;;;;;;;;;;5119877;28;20207;-65
2021/10/11 12:53:59;;;;;;;13.00;5.07;;;;;;;;;;5109598;28;20224;-65
2021/10/11 12:56:27;;;;;;;7.13;5.47;;;;;;;;;;5120191;28;20201;-65
2021/10/11 12:58:58;;;;;;;9.43;5.30;;;;;;;;;;5120348;28;20231;-65
2021/10/11 13:01:28;;;;;;;7.77;5.47;;;;;;;;;;5120128;28;20266;-65
2021/10/11 13:03:56;;;;;;;7.70;5.20;;;;;;;;;;5120284;28;20223;-65
2021/10/11 13:06:25;;;;;;;9.27;5.17;;;;;;;;;;5119846;28;20201;-65
2021/10/11 13:08:53;;;;;;;7.17;5.43;;;;;;;;;;5120075;28;20211;-64
2021/10/11 13:11:21;;;;;;;9.10;5.40;;;;;;;;;;5119951;28;20208;-65
2021/10/11 13:13:49;;;;;;;5.80;4.70;;;;;;;;;;5119856;28;20312;-65
2021/10/11 13:16:17;;;;;;;6.10;5.20;;;;;;;;;;5119950;28;20685;-65
2021/10/11 13:18:46;;;;;;;6.97;4.43;;;;;;;;;;5119674;28;20228;-65
2021/10/11 13:21:15;;;;;;;14.33;5.17;;;;;;;;;;5119366;27;20573;-64
2021/10/11 13:23:43;;;;;;;7.20;4.50;;;;;;;;;;5119463;28;20686;-65
2021/10/11 13:26:11;;;;;;;8.07;4.80;;;;;;;;;;5119795;28;20203;-64
2021/10/11 13:28:41;;;;;;;9.70;4.97;;;;;;;;;;5119503;28;20201;-64
2021/10/11 14:29:32;;;;;;;7.80;5.23;;;;;;;;;;5118094;28;20287;-65
2021/10/11 14:32:04;;;;;;;5.37;3.93;;;;;;;;;;5118203;28;20235;-65
2021/10/11 15:50:56;;;;;;;4.63;3.80;;;;;;;;;;5118252;28;20227;-66
2021/10/11 15:58:47;;;;;;;5.57;3.77;;;;;;;;;;5074763;28;20230;-64
2021/10/11 16:01:17;;;;;;;4.10;3.67;;;;;;;;;;5075158;28;20220;-66
2021/10/11 16:03:53;;;;;;;8.23;4.70;;;;;;;;;;5096831;28;20209;-66
2021/10/11 16:06:21;;;;;;;5.07;4.17;;;;;;;;;;5117671;28;20727;-66
2021/10/11 16:08:50;;;;;;;6.13;4.20;;;;;;;;;;5117854;28;20205;-66
2021/10/11 16:11:18;;;;;;;5.77;3.60;;;;;;;;;;5118770;28;20243;-65
2021/10/11 16:13:47;;;;;;;7.90;3.70;;;;;;;;;;5121187;28;20230;-64
2021/10/11 16:16:15;;;;;;;5.03;4.53;;;;;;;;;;5121226;28;20243;-65
2021/10/11 16:18:43;;;;;;;5.37;4.73;;;;;;;;;;5120775;28;20275;-65
2021/10/11 16:21:12;;;;;;;5.67;4.80;;;;;;;;;;5120912;28;20200;-66
2021/10/11 16:23:41;;;;;;;6.63;4.40;;;;;;;;;;5121120;28;20660;-66
2021/10/11 16:26:09;;;;;;;8.17;4.43;;;;;;;;;;5120856;28;20205;-66
2021/10/11 16:28:38;;;;;;;6.43;3.97;;;;;;;;;;5120781;28;20719;-66
2021/10/11 16:31:07;;;;;;;5.77;4.70;;;;;;;;;;5120758;28;20209;-66
2021/10/11 16:33:35;;;;;;;6.43;5.00;;;;;;;;;;5120804;28;20214;-64
2021/10/11 16:36:07;;;;;;;8.90;5.00;;;;;;;;;;5120604;28;20197;-64
2021/10/11 16:38:36;;;;;;;6.10;4.00;;;;;;;;;;5120398;28;20240;-64
2021/10/11 16:41:04;;;;;;;6.30;4.57;;;;;;;;;;5120512;28;20209;-64
2021/10/11 16:43:32;;;;;;;7.17;4.80;;;;;;;;;;5120700;28;20208;-63
2021/10/11 16:46:00;;;;;;;7.87;4.37;;;;;;;;;;5120168;28;20217;-64
2021/10/11 16:48:28;;;;;;;5.93;4.50;;;;;;;;;;5120767;28;20242;-64
2021/10/11 16:50:56;;;;;;;17.03;10.53;;;;;;;;;;5120298;28;20603;-64
2021/10/11 16:53:24;;;;;;;8.93;5.70;;;;;;;;;;5120476;28;20209;-64
2021/10/11 16:55:53;;;;;;;6.77;4.33;;;;;;;;;;5120145;28;20231;-63
2021/10/11 16:58:21;;;;;;;5.27;4.63;;;;;;;;;;5120489;28;20209;-62
2021/10/11 17:00:49;;;;;;;7.30;4.47;;;;;;;;;;5117782;28;20584;-62
2021/10/11 17:03:17;;;;;;;6.63;4.70;;;;;;;;;;5119302;28;20228;-62
2021/10/11 17:05:46;;;;;;;6.33;4.40;;;;;;;;;;5118580;28;20635;-62